Time;durP1;ratioP1;P1;durP2;ratioP2;P2;SDS_P1;SDS_P2;PMS_P1;PMS_P2;Temp;Humidity;BMP_temperature;BMP_pressure;BME280_temperature;BME280_humidity;BME280_pressure;Samples;Min_cycle;Max_cycle;Signal;HPM_P1;HPM_P2
2023/08/03 00:04:49;;;;;;;5.43;1.20;;;;;;;14.45;100.00;98944.34;10434024;28;20102;-78
2023/08/03 00:09:50;;;;;;;7.60;2.35;;;;;;;14.43;100.00;98952.25;10447507;28;20049;-78
2023/08/03 00:14:51;;;;;;;11.85;2.47;;;;;;;14.35;100.00;98965.38;10448171;28;20049;-77
2023/08/03 00:19:52;;;;;;;4.75;2.55;;;;;;;14.23;100.00;98976.78;10413477;28;20052;-76
2023/08/03 00:24:53;;;;;;;5.93;1.90;;;;;;;14.17;100.00;98984.66;10449062;28;20796;-76
2023/08/03 00:29:54;;;;;;;4.67;2.20;;;;;;;14.14;100.00;98991.63;10453928;28;20404;-76
2023/08/03 00:34:55;;;;;;;7.65;2.15;;;;;;;14.14;100.00;99008.31;10440231;28;20045;-77
2023/08/03 00:39:56;;;;;;;3.28;1.50;;;;;;;14.13;100.00;99016.19;10447408;28;20128;-76
2023/08/03 00:44:56;;;;;;;5.72;2.13;;;;;;;14.14;100.00;99025.84;10443813;28;20040;-77
2023/08/03 00:49:57;;;;;;;4.85;2.00;;;;;;;14.15;100.00;99020.59;10427881;28;20148;-77
2023/08/03 00:54:57;;;;;;;6.82;2.75;;;;;;;14.18;100.00;99030.22;10475218;28;20359;-79
2023/08/03 00:59:58;;;;;;;6.45;2.78;;;;;;;14.21;100.00;99030.25;10443764;28;20102;-77
2023/08/03 01:04:58;;;;;;;7.80;3.35;;;;;;;14.22;100.00;99032.00;10477402;28;20036;-77
2023/08/03 01:09:59;;;;;;;8.20;3.33;;;;;;;14.25;100.00;99055.69;10443780;28;20445;-78
2023/08/03 01:14:59;;;;;;;5.90;3.20;;;;;;;14.28;100.00;99060.97;10445441;28;20037;-78
2023/08/03 01:20:00;;;;;;;10.85;5.03;;;;;;;14.31;100.00;99058.34;10443613;28;20408;-78
2023/08/03 01:25:00;;;;;;;7.97;3.53;;;;;;;14.32;100.00;99068.00;10438351;28;20549;-78
2023/08/03 01:30:01;;;;;;;9.63;3.22;;;;;;;14.35;100.00;99065.38;10413810;28;20033;-77
2023/08/03 01:35:02;;;;;;;10.88;3.83;;;;;;;14.35;100.00;99073.28;10440948;28;20686;-77
2023/08/03 01:40:03;;;;;;;15.50;4.15;;;;;;;14.34;100.00;99081.19;10442594;28;20037;-78
2023/08/03 01:45:06;;;;;;;15.70;6.03;;;;;;;14.35;100.00;99080.31;10442342;28;20116;-77
2023/08/03 01:50:07;;;;;;;7.78;3.38;;;;;;;14.35;100.00;99085.56;10425318;28;20485;-77
2023/08/03 01:55:07;;;;;;;9.57;4.05;;;;;;;14.30;100.00;99095.19;10438695;28;20045;-77
2023/08/03 02:00:08;;;;;;;22.45;8.35;;;;;;;14.29;100.00;99086.41;10444314;28;20105;-77
2023/08/03 02:05:08;;;;;;;12.93;4.50;;;;;;;14.30;100.00;99090.78;10442583;28;20097;-78
2023/08/03 02:10:10;;;;;;;15.65;5.82;;;;;;;14.33;100.00;99095.22;10445290;28;20040;-78
2023/08/03 02:15:10;;;;;;;7.43;3.40;;;;;;;14.38;100.00;99104.88;10423612;28;20033;-78
2023/08/03 02:20:11;;;;;;;12.77;4.80;;;;;;;14.31;100.00;99105.72;10412507;28;20507;-77
2023/08/03 02:25:12;;;;;;;12.85;4.90;;;;;;;14.35;100.00;99125.03;10440484;28;20037;-78
2023/08/03 02:30:12;;;;;;;8.65;4.70;;;;;;;14.34;100.00;99134.66;10441436;28;20037;-78
2023/08/03 02:35:13;;;;;;;13.32;4.00;;;;;;;14.35;100.00;99127.66;10434721;28;20533;-78
2023/08/03 02:40:13;;;;;;;9.20;3.83;;;;;;;14.33;100.00;99109.22;10440111;28;20040;-76
2023/08/03 02:45:14;;;;;;;9.65;3.03;;;;;;;14.39;100.00;99114.50;10441249;28;20128;-79
2023/08/03 02:50:14;;;;;;;9.77;3.30;;;;;;;14.41;100.00;99095.22;10434930;28;20033;-79
2023/08/03 02:55:16;;;;;;;9.63;3.45;;;;;;;14.38;100.00;99096.97;10423322;28;20049;-78
2023/08/03 03:00:16;;;;;;;26.25;5.35;;;;;;;14.35;100.00;99083.78;10480264;28;20131;-78
2023/08/03 03:05:17;;;;;;;7.70;2.75;;;;;;;14.43;100.00;99086.47;10468823;28;20041;-78
2023/08/03 03:10:18;;;;;;;18.42;3.55;;;;;;;14.44;100.00;99087.34;10447126;28;20127;-78
2023/08/03 03:15:18;;;;;;;11.52;2.65;;;;;;;14.41;100.00;99100.47;10481771;28;20123;-78
2023/08/03 03:20:19;;;;;;;7.30;3.40;;;;;;;14.46;100.00;99114.53;10461016;28;20127;-77
2023/08/03 03:25:19;;;;;;;12.93;3.58;;;;;;;14.53;100.00;99100.53;10459673;28;20115;-76
2023/08/03 03:30:20;;;;;;;8.57;3.45;;;;;;;14.57;100.00;99096.16;10473915;28;20045;-77
2023/08/03 03:35:20;;;;;;;6.05;2.25;;;;;;;14.63;100.00;99101.44;10486839;28;20496;-77
2023/08/03 03:40:21;;;;;;;8.30;2.20;;;;;;;14.65;100.00;99116.34;10489985;28;20119;-78
2023/08/03 03:45:21;;;;;;;4.13;1.73;;;;;;;14.70;100.00;99123.44;10488358;28;20377;-78
2023/08/03 03:50:22;;;;;;;4.88;2.17;;;;;;;14.70;100.00;99153.28;10489078;28;20044;-78
2023/08/03 03:55:22;;;;;;;6.13;1.95;;;;;;;14.78;100.00;99148.03;10489804;28;20064;-77
2023/08/03 04:00:23;;;;;;;11.27;2.30;;;;;;;14.85;100.00;99148.94;10479959;28;20395;-78
2023/08/03 04:05:23;;;;;;;3.30;1.73;;;;;;;14.85;100.00;99157.69;10517711;28;20543;-78
2023/08/03 04:10:24;;;;;;;5.10;2.67;;;;;;;14.85;100.00;99149.81;10476849;28;20036;-78
2023/08/03 04:15:24;;;;;;;3.90;1.83;;;;;;;14.82;100.00;99162.97;10485329;28;20713;-78
2023/08/03 04:20:25;;;;;;;10.80;2.70;;;;;;;14.85;100.00;99164.75;10481154;28;20084;-77
2023/08/03 04:25:25;;;;;;;4.60;2.35;;;;;;;14.96;100.00;99169.16;10479472;28;20128;-78
2023/08/03 04:30:27;;;;;;;5.95;2.40;;;;;;;15.02;100.00;99170.03;10476953;28;20040;-78
2023/08/03 04:35:28;;;;;;;6.20;2.05;;;;;;;15.00;100.00;99177.06;10486149;28;20115;-79
2023/08/03 04:40:28;;;;;;;5.60;1.58;;;;;;;15.02;100.00;99183.22;10464552;28;20051;-78
2023/08/03 04:45:29;;;;;;;14.20;2.53;;;;;;;14.98;100.00;99193.75;10480478;28;20052;-80
2023/08/03 04:50:29;;;;;;;9.85;2.45;;;;;;;14.75;100.00;99211.22;10486649;28;20377;-79
2023/08/03 04:55:30;;;;;;;6.10;2.00;;;;;;;14.50;100.00;99232.13;10489184;28;22796;-77
2023/08/03 05:00:30;;;;;;;8.52;2.47;;;;;;;14.34;100.00;99246.97;10484664;28;20041;-77
2023/08/03 05:05:31;;;;;;;9.80;4.05;;;;;;;14.27;100.00;99248.66;10461915;28;20075;-77
2023/08/03 05:10:31;;;;;;;6.75;2.55;;;;;;;14.16;100.00;99252.97;10481612;28;20044;-77
2023/08/03 05:15:32;;;;;;;8.30;2.95;;;;;;;14.10;100.00;99256.44;10485075;28;20101;-77
2023/08/03 05:20:32;;;;;;;8.98;4.30;;;;;;;14.07;100.00;99267.81;10473107;28;20438;-76
2023/08/03 05:25:33;;;;;;;7.13;3.10;;;;;;;14.05;100.00;99274.81;10493723;28;20039;-75
2023/08/03 05:30:33;;;;;;;7.30;2.88;;;;;;;14.07;100.00;99275.69;10481930;28;20041;-75
2023/08/03 05:35:34;;;;;;;4.88;2.17;;;;;;;14.06;100.00;99287.09;10478770;28;20399;-76
2023/08/03 05:40:34;;;;;;;5.68;2.83;;;;;;;14.09;100.00;99295.00;10482027;28;20044;-77
2023/08/03 05:45:42;;;;;;;7.80;2.13;;;;;;;14.14;100.00;99297.69;10479884;28;20090;-76
2023/08/03 05:50:46;;;;;;;6.28;3.15;;;;;;;14.12;100.00;99309.97;10480597;28;20154;-74
2023/08/03 05:55:47;;;;;;;8.10;3.80;;;;;;;14.10;100.00;99348.53;10458997;28;20045;-76
2023/08/03 06:00:48;;;;;;;7.43;3.58;;;;;;;14.10;100.00;99359.91;10427658;28;20060;-74
2023/08/03 06:05:52;;;;;;;5.85;3.00;;;;;;;14.22;100.00;99364.41;10431776;28;20408;-75
2023/08/03 06:10:57;;;;;;;12.52;3.42;;;;;;;14.37;100.00;99349.63;10438525;28;20048;-76
2023/08/03 06:15:59;;;;;;;6.13;2.15;;;;;;;14.53;100.00;99359.41;10455562;28;20040;-77
2023/08/03 06:21:00;;;;;;;5.55;3.03;;;;;;;14.70;100.00;99363.94;10483984;28;20095;-76
2023/08/03 06:26:01;;;;;;;5.35;2.50;;;;;;;14.98;100.00;99379.91;10488876;28;20047;-75
2023/08/03 06:31:05;;;;;;;13.38;3.53;;;;;;;15.15;100.00;99380.00;10489052;28;20545;-75
2023/08/03 06:36:10;;;;;;;9.35;2.75;;;;;;;15.39;100.00;99384.50;10450158;28;20040;-75
2023/08/03 06:41:10;;;;;;;3.40;1.65;;;;;;;15.69;100.00;99396.03;10469163;28;20049;-75
2023/08/03 06:46:11;;;;;;;3.38;1.52;;;;;;;15.76;100.00;99385.50;10522759;28;20036;-75
2023/08/03 06:51:11;;;;;;;6.53;2.05;;;;;;;15.79;100.00;99390.78;10480683;28;20028;-74
2023/08/03 06:56:12;;;;;;;5.57;2.35;;;;;;;15.63;100.00;99400.41;10431279;28;20138;-73
2023/08/03 07:01:13;;;;;;;6.35;4.57;;;;;;;15.71;100.00;99396.03;10429176;28;20708;-74
2023/08/03 07:06:17;;;;;;;9.40;3.90;;;;;;;16.49;100.00;99397.09;10412579;28;20064;-74
2023/08/03 07:11:22;;;;;;;6.47;3.40;;;;;;;16.80;100.00;99380.31;10430231;28;20540;-74
2023/08/03 07:16:23;;;;;;;4.93;2.22;;;;;;;16.28;100.00;99408.50;10464604;28;20041;-75
2023/08/03 07:21:23;;;;;;;8.20;3.50;;;;;;;16.14;100.00;99437.53;10399749;28;20048;-75
2023/08/03 07:26:24;;;;;;;9.60;2.97;;;;;;;16.28;100.00;99454.28;10426438;28;20492;-75
2023/08/03 07:31:25;;;;;;;7.78;2.85;;;;;;;16.16;100.00;99464.81;10431033;28;20037;-76
2023/08/03 07:36:26;;;;;;;5.38;2.80;;;;;;;15.98;100.00;99469.16;10453518;28;20072;-76
2023/08/03 07:41:27;;;;;;;7.85;3.00;;;;;;;16.06;100.00;99474.44;10456225;28;20124;-76
2023/08/03 07:46:27;;;;;;;7.97;3.33;;;;;;;16.15;100.00;99481.50;10497124;28;21892;-74
2023/08/03 07:51:28;;;;;;;9.25;3.38;;;;;;;15.92;100.00;99494.63;10480176;28;20060;-73
2023/08/03 07:56:28;;;;;;;4.22;3.08;;;;;;;15.85;100.00;99499.84;10458978;28;20048;-76
2023/08/03 08:01:29;;;;;;;14.50;4.65;;;;;;;15.85;100.00;99506.88;10483071;28;20119;-74
2023/08/03 08:06:29;;;;;;;6.55;2.70;;;;;;;16.26;100.00;99492.97;10480873;28;20036;-75
2023/08/03 08:11:30;;;;;;;5.25;2.70;;;;;;;16.41;100.00;99512.38;10476873;28;20119;-76
2023/08/03 08:16:30;;;;;;;8.10;2.92;;;;;;;16.68;100.00;99514.16;10474988;28;20093;-75
2023/08/03 08:21:31;;;;;;;8.88;3.80;;;;;;;16.82;100.00;99518.56;10503183;28;20052;-74
2023/08/03 08:26:32;;;;;;;14.70;2.20;;;;;;;17.31;100.00;99525.66;10489742;28;20045;-75
2023/08/03 08:31:32;;;;;;;6.70;3.25;;;;;;;17.80;100.00;99505.25;10486573;28;20044;-74
2023/08/03 08:36:33;;;;;;;9.55;2.70;;;;;;;17.25;100.00;99531.81;10483352;28;20064;-75
2023/08/03 08:41:38;;;;;;;6.50;2.60;;;;;;;17.04;100.00;99556.50;10519729;28;20060;-75
2023/08/03 08:46:41;;;;;;;6.05;3.05;;;;;;;17.12;100.00;99540.63;10458813;28;20434;-76
2023/08/03 08:51:42;;;;;;;8.20;3.08;;;;;;;16.99;100.00;99564.41;10467966;28;20040;-75
2023/08/03 08:56:42;;;;;;;5.25;2.45;;;;;;;16.88;100.00;99584.63;10460080;28;20511;-76
2023/08/03 09:01:53;;;;;;;6.05;3.03;;;;;;;17.08;100.00;99589.09;10459820;28;20045;-77
2023/08/03 09:06:53;;;;;;;5.65;2.13;;;;;;;17.65;100.00;99590.81;10449897;28;20044;-74
2023/08/03 09:11:55;;;;;;;10.57;2.95;;;;;;;17.57;100.00;99580.28;10468032;28;20044;-76
2023/08/03 09:17:16;;;;;;;11.05;2.40;;;;;;;17.23;100.00;99612.03;10468290;28;20049;-74
2023/08/03 09:22:21;;;;;;;7.82;3.05;;;;;;;16.94;100.00;99629.56;10447981;28;20056;-75
2023/08/03 09:27:21;;;;;;;8.25;3.53;;;;;;;17.14;100.00;99639.31;10427377;28;20083;-76
2023/08/03 09:32:22;;;;;;;15.07;7.68;;;;;;;16.93;100.00;99648.94;10423720;28;20751;-75
2023/08/03 09:37:33;;;;;;;6.18;2.45;;;;;;;16.87;100.00;99662.16;10421561;28;20047;-77
2023/08/03 09:42:35;;;;;;;10.82;2.03;;;;;;;16.90;100.00;99662.16;10475697;28;20460;-75
2023/08/03 09:47:36;;;;;;;;;;;;;;;16.94;100.00;99686.84;10454631;28;20116;-74
2023/08/03 09:52:42;;;;;;;11.38;3.05;;;;;;;16.94;100.00;99678.91;10466717;28;20353;-75
2023/08/03 09:57:43;;;;;;;8.98;2.58;;;;;;;16.73;100.00;99699.97;10437345;28;20041;-75
2023/08/03 10:03:03;;;;;;;6.32;2.00;;;;;;;16.39;100.00;99714.81;10477000;28;20110;-75
2023/08/03 10:08:11;;;;;;;7.60;1.90;;;;;;;16.29;100.00;99729.69;10489174;28;20045;-76
2023/08/03 10:13:11;;;;;;;5.80;2.30;;;;;;;16.36;100.00;99741.19;10456865;28;20404;-76
2023/08/03 10:18:12;;;;;;;3.67;1.58;;;;;;;16.50;100.00;99743.88;10467338;28;20132;-76
2023/08/03 10:23:17;;;;;;;8.43;1.95;;;;;;;16.77;100.00;99739.63;10450523;28;20342;-75
2023/08/03 10:28:19;;;;;;;3.42;1.85;;;;;;;16.84;100.00;99757.25;10423062;28;20041;-77
2023/08/03 10:33:19;;;;;;;9.80;2.70;;;;;;;17.09;100.00;99757.38;10425387;28;20045;-78
2023/08/03 10:38:21;;;;;;;5.78;3.03;;;;;;;17.21;100.00;99762.72;10424646;28;20036;-77
2023/08/03 10:43:23;;;;;;;4.95;2.10;;;;;;;17.02;100.00;99767.06;10423302;28;20128;-78
2023/08/03 10:48:37;;;;;;;3.97;1.83;;;;;;;17.24;100.00;99777.72;10420462;28;20041;-78
2023/08/03 10:53:37;;;;;;;3.88;1.30;;;;;;;17.54;100.00;99794.53;10436139;28;20041;-78
2023/08/03 10:58:48;;;;;;;7.03;1.50;;;;;;;17.50;100.00;99792.75;10441349;28;20548;-77
2023/08/03 11:03:49;;;;;;;3.83;1.90;;;;;;;17.53;100.00;99803.34;10440643;28;20072;-76
2023/08/03 11:08:50;;;;;;;4.65;1.95;;;;;;;17.30;100.00;99809.47;10441812;28;20580;-79
2023/08/03 11:13:50;;;;;;;3.90;2.03;;;;;;;17.31;100.00;99811.22;10415225;28;20048;-77
2023/08/03 11:18:51;;;;;;;12.35;4.00;;;;;;;16.97;100.00;99832.25;10431921;28;20069;-75
2023/08/03 11:23:51;;;;;;;4.53;2.13;;;;;;;16.98;100.00;99837.53;10424656;28;20065;-76
2023/08/03 11:28:52;;;;;;;8.68;2.85;;;;;;;17.51;100.00;99850.06;10414629;28;20041;-76
2023/08/03 11:33:54;;;;;;;4.17;2.00;;;;;;;18.53;100.00;99815.75;10396126;28;20045;-75
2023/08/03 11:38:55;;;;;;;;;;;;;;;18.42;100.00;99828.13;10420880;28;20056;-73
2023/08/03 11:43:55;;;;;;;2.90;1.30;;;;;;;18.15;100.00;99853.75;10421208;28;19939;-75
2023/08/03 11:49:02;;;;;;;2.05;1.50;;;;;;;18.08;100.00;99867.84;10435539;28;20047;-77
2023/08/03 11:54:21;;;;;;;2.55;1.05;;;;;;;17.70;100.00;99877.44;10468733;28;20087;-78
2023/08/03 11:59:22;;;;;;;4.43;1.27;;;;;;;17.22;100.00;99914.31;10463626;28;20496;-75
2023/08/03 12:04:26;;;;;;;6.35;1.63;;;;;;;16.99;100.00;99917.72;10470658;28;20051;-78
2023/08/03 12:09:28;;;;;;;6.85;2.47;;;;;;;17.40;100.00;99913.50;10477654;28;20032;-78
2023/08/03 12:14:29;;;;;;;6.10;2.03;;;;;;;17.25;100.00;99917.84;10453088;28;20127;-79
2023/08/03 12:19:33;;;;;;;3.95;1.30;;;;;;;17.07;100.00;99936.25;10417556;28;20047;-78
2023/08/03 12:24:34;;;;;;;3.80;1.30;;;;;;;17.56;100.00;99919.75;10425140;28;20037;-81
2023/08/03 12:29:34;;;;;;;2.83;1.63;;;;;;;16.97;100.00;99949.41;10417114;28;20119;-79
2023/08/03 12:34:35;;;;;;;2.35;1.38;;;;;;;16.44;100.00;99983.28;10428989;28;20099;-80
2023/08/03 12:39:35;;;;;;;3.30;2.17;;;;;;;15.69;100.00;100000.03;10409039;28;20120;-78
2023/08/03 12:44:37;;;;;;;5.57;3.03;;;;;;;15.51;100.00;100023.53;10423996;28;20571;-78
2023/08/03 12:49:39;;;;;;;4.60;3.53;;;;;;;15.40;100.00;100026.91;10432719;28;20078;-77
2023/08/03 12:54:39;;;;;;;4.22;2.58;;;;;;;15.59;100.00;100045.63;10474610;28;20428;-77
2023/08/03 12:59:40;;;;;;;3.63;2.63;;;;;;;15.80;100.00;100059.97;10466661;28;20117;-78
2023/08/03 13:04:40;;;;;;;3.67;2.47;;;;;;;15.81;100.00;100081.09;10465657;28;20553;-77
2023/08/03 13:09:41;;;;;;;6.72;3.63;;;;;;;15.77;100.00;100089.81;10466859;28;20089;-77
2023/08/03 13:14:41;;;;;;;6.50;4.13;;;;;;;16.05;100.00;100108.69;10487513;28;20105;-77
2023/08/03 13:19:42;;;;;;;3.65;1.73;;;;;;;16.27;100.00;100119.53;10471897;28;20085;-77
2023/08/03 13:24:42;;;;;;;2.97;1.73;;;;;;;16.41;100.00;100120.59;10479174;28;20087;-76
2023/08/03 13:29:44;;;;;;;15.65;10.20;;;;;;;16.64;100.00;100119.94;10472680;28;20048;-76
2023/08/03 13:34:44;;;;;;;2.90;1.67;;;;;;;16.94;100.00;100114.97;10447688;28;20515;-76
2023/08/03 13:39:45;;;;;;;4.00;1.85;;;;;;;17.55;100.00;100105.81;10464359;28;20040;-76
2023/08/03 13:44:45;;;;;;;3.65;1.30;;;;;;;17.98;100.00;100097.22;10457027;28;20037;-75
2023/08/03 13:49:46;;;;;;;3.92;1.45;;;;;;;17.54;100.00;100106.69;10467067;28;20099;-75
2023/08/03 13:54:47;;;;;;;7.78;3.47;;;;;;;16.97;100.00;100133.53;10477853;28;20044;-75
2023/08/03 13:59:47;;;;;;;7.38;1.83;;;;;;;16.85;100.00;100155.41;10458254;28;20109;-76
2023/08/03 14:04:53;;;;;;;7.38;3.25;;;;;;;17.02;100.00;100174.13;10467762;28;20041;-75
2023/08/03 14:09:53;;;;;;;9.35;4.25;;;;;;;17.56;100.00;100176.38;10445540;28;20068;-75
2023/08/03 14:14:54;;;;;;;7.00;3.92;;;;;;;17.97;100.00;100162.53;10485893;28;20036;-76
2023/08/03 14:19:55;;;;;;;9.95;2.80;;;;;;;18.10;100.00;100163.50;10459187;28;20057;-76
2023/08/03 14:24:56;;;;;;;8.97;3.27;;;;;;;18.09;100.00;100164.38;10465781;28;20036;-76
2023/08/03 14:29:57;;;;;;;7.53;2.88;;;;;;;18.59;100.00;100185.81;10473895;28;20043;-77
2023/08/03 14:34:57;;;;;;;7.22;3.38;;;;;;;19.01;100.00;100184.19;10463884;28;20044;-78
2023/08/03 14:39:59;;;;;;;7.47;3.55;;;;;;;18.66;100.00;100179.66;10499995;28;21692;-76
2023/08/03 14:45:00;;;;;;;;;;;;;;;18.36;100.00;100202.50;10445035;28;20037;-74
2023/08/03 14:50:01;;;;;;;23.42;12.10;;;;;;;18.29;100.00;100216.56;10417550;28;19928;-75
2023/08/03 14:55:02;;;;;;;13.70;3.53;;;;;;;18.56;100.00;100220.25;10428406;28;20040;-75
2023/08/03 15:00:04;;;;;;;9.53;3.90;;;;;;;19.11;100.00;100227.53;10436093;28;20045;-75
2023/08/03 15:05:05;;;;;;;9.13;4.40;;;;;;;19.35;100.00;100207.25;10413556;28;20038;-75
2023/08/03 15:10:06;;;;;;;8.98;3.75;;;;;;;18.94;100.00;100232.75;10432439;28;20115;-76
2023/08/03 15:15:08;;;;;;;11.77;4.80;;;;;;;18.15;100.00;100243.00;10409759;28;20049;-75
2023/08/03 15:20:09;;;;;;;18.43;5.43;;;;;;;17.95;100.00;100266.63;10416207;28;20049;-76
2023/08/03 15:25:09;;;;;;;10.07;3.38;;;;;;;18.47;100.00;100256.41;10431548;28;20795;-75
2023/08/03 15:30:12;;;;;;;10.38;4.55;;;;;;;18.80;100.00;100235.38;10431366;28;20409;-77
2023/08/03 15:35:14;;;;;;;16.20;3.85;;;;;;;18.54;100.00;100251.16;10425161;28;20040;-77
2023/08/03 15:40:15;;;;;;;9.20;3.58;;;;;;;18.56;100.00;100276.78;10438857;28;20041;-77
2023/08/03 15:45:16;;;;;;;6.28;3.85;;;;;;;18.67;100.00;100273.31;10430166;28;20404;-76
2023/08/03 15:50:16;;;;;;;8.05;4.20;;;;;;;19.06;100.00;100267.28;10433715;28;20048;-77
2023/08/03 15:55:17;;;;;;;12.50;5.60;;;;;;;19.18;100.00;100258.50;10432717;28;20131;-76
2023/08/03 16:00:18;;;;;;;9.95;3.72;;;;;;;18.94;100.00;100272.53;10404183;28;20124;-77
2023/08/03 16:05:19;;;;;;;12.07;4.07;;;;;;;18.48;100.00;100287.31;10455723;28;20085;-76
2023/08/03 16:10:19;;;;;;;9.90;5.38;;;;;;;18.01;100.00;100312.63;10403011;28;20117;-76
2023/08/03 16:15:20;;;;;;;11.63;6.35;;;;;;;17.89;100.00;100313.34;10407664;28;20045;-77
2023/08/03 16:20:21;;;;;;;18.92;9.57;;;;;;;17.68;100.00;100327.28;10437688;28;20040;-76
2023/08/03 16:25:24;;;;;;;9.43;4.38;;;;;;;17.61;100.00;100336.91;10434684;28;20041;-77
2023/08/03 16:30:25;;;;;;;16.52;8.75;;;;;;;17.69;100.00;100342.28;10436499;28;20051;-76
2023/08/03 16:35:25;;;;;;;13.52;6.85;;;;;;;17.96;100.00;100329.28;10431790;28;20034;-77
2023/08/03 16:40:26;;;;;;;14.02;6.15;;;;;;;17.91;100.00;100332.78;10417625;28;20466;-77
2023/08/03 16:45:26;;;;;;;8.93;4.72;;;;;;;17.87;100.00;100343.34;10446670;28;20546;-77
2023/08/03 16:50:27;;;;;;;13.63;7.07;;;;;;;17.89;100.00;100339.81;10431594;28;20038;-77
2023/08/03 16:55:27;;;;;;;10.63;3.47;;;;;;;18.10;100.00;100345.34;10446689;28;20090;-77
2023/08/03 17:00:28;;;;;;;4.97;3.35;;;;;;;18.16;100.00;100345.41;10424634;28;20550;-76
2023/08/03 17:05:28;;;;;;;12.43;2.97;;;;;;;18.05;100.00;100371.78;10417992;28;20124;-78
2023/08/03 17:10:30;;;;;;;6.20;2.83;;;;;;;17.71;100.00;100382.91;10417437;28;20048;-77
2023/08/03 17:15:30;;;;;;;10.90;4.23;;;;;;;17.44;100.00;100396.69;10414634;28;20070;-76
2023/08/03 17:20:31;;;;;;;14.95;4.28;;;;;;;17.74;100.00;100429.66;10416437;28;20057;-77
2023/08/03 17:25:32;;;;;;;8.85;2.75;;;;;;;18.05;100.00;100404.44;10440834;28;20425;-76
2023/08/03 17:30:32;;;;;;;8.02;2.78;;;;;;;17.54;100.00;100419.72;10444060;28;20056;-77
2023/08/03 17:35:33;;;;;;;8.25;3.25;;;;;;;17.03;100.00;100440.25;10441105;28;20045;-77
2023/08/03 17:40:33;;;;;;;7.03;2.95;;;;;;;16.74;100.00;100454.75;10443903;28;20041;-77
2023/08/03 17:45:37;;;;;;;7.20;5.93;;;;;;;16.59;100.00;100471.25;10446426;28;20542;-78
2023/08/03 17:50:38;;;;;;;10.65;4.00;;;;;;;16.54;100.00;100478.22;10442631;28;20033;-77
2023/08/03 17:55:38;;;;;;;10.50;5.38;;;;;;;16.43;100.00;100485.06;10396723;28;20029;-77
2023/08/03 18:00:39;;;;;;;6.30;2.78;;;;;;;16.26;100.00;100487.41;10414805;28;20122;-77
2023/08/03 18:05:42;;;;;;;8.98;3.45;;;;;;;16.07;100.00;100497.59;10432079;28;20103;-77
2023/08/03 18:10:51;;;;;;;10.65;3.40;;;;;;;15.93;100.00;100521.09;10464692;28;20075;-77
2023/08/03 18:15:51;;;;;;;9.65;2.75;;;;;;;15.79;100.00;100514.63;10475340;28;20045;-77
2023/08/03 18:20:52;;;;;;;13.90;3.67;;;;;;;15.65;100.00;100514.31;10458862;28;20440;-77
2023/08/03 18:25:59;;;;;;;10.30;3.00;;;;;;;15.54;100.00;100522.91;10404417;28;20046;-77
2023/08/03 18:31:04;;;;;;;10.07;3.15;;;;;;;15.47;100.00;100528.88;10480032;28;20119;-77
2023/08/03 18:36:06;;;;;;;11.48;4.22;;;;;;;15.43;100.00;100528.81;10475767;28;20083;-77
2023/08/03 18:41:13;;;;;;;14.15;3.67;;;;;;;15.36;100.00;100546.22;10479341;28;20033;-77
2023/08/03 18:46:15;;;;;;;6.38;3.72;;;;;;;15.25;100.00;100546.00;10445637;28;20029;-77
2023/08/03 18:51:21;;;;;;;10.27;3.53;;;;;;;15.16;100.00;100553.69;10478994;28;20060;-77
2023/08/03 18:56:23;;;;;;;15.10;5.22;;;;;;;15.06;100.00;100560.47;10484890;28;20064;-77
2023/08/03 19:01:26;;;;;;;7.63;3.25;;;;;;;14.94;100.00;100563.69;10466354;28;20088;-77
2023/08/03 19:06:26;;;;;;;9.90;3.03;;;;;;;14.79;100.00;100578.25;10452387;28;20045;-77
2023/08/03 19:11:27;;;;;;;9.07;4.05;;;;;;;14.63;100.00;100594.47;10465283;28;20048;-78
2023/08/03 19:16:27;;;;;;;8.77;3.92;;;;;;;14.46;100.00;100599.28;10481558;28;20041;-77
2023/08/03 19:21:28;;;;;;;9.15;4.88;;;;;;;14.31;100.00;100600.63;10446867;28;20086;-77
2023/08/03 19:26:29;;;;;;;17.00;4.15;;;;;;;14.15;100.00;100614.22;10455783;28;20043;-78
2023/08/03 19:31:30;;;;;;;8.93;4.13;;;;;;;14.01;100.00;100630.47;10458977;28;20557;-78
2023/08/03 19:36:31;;;;;;;8.18;3.72;;;;;;;13.87;100.00;100637.97;10453583;28;20059;-77
2023/08/03 19:41:32;;;;;;;11.07;5.87;;;;;;;13.73;100.00;100652.44;10459973;28;20044;-78
2023/08/03 19:46:32;;;;;;;9.10;4.07;;;;;;;13.64;100.00;100659.19;10459502;28;20037;-77
2023/08/03 19:51:34;;;;;;;10.48;4.22;;;;;;;13.53;100.00;100675.44;10480189;28;20134;-78
2023/08/03 19:56:35;;;;;;;11.70;3.17;;;;;;;13.36;100.00;100679.28;10456182;28;20044;-78
2023/08/03 20:01:36;;;;;;;10.95;4.95;;;;;;;13.21;100.00;100682.28;10467297;28;20045;-77
2023/08/03 20:06:37;;;;;;;12.43;3.77;;;;;;;13.03;100.00;100685.19;10479733;28;20041;-79
2023/08/03 20:11:37;;;;;;;21.48;6.38;;;;;;;12.95;100.00;100698.88;10464511;28;20033;-78
2023/08/03 20:16:38;;;;;;;13.32;4.13;;;;;;;12.89;100.00;100699.56;10445068;28;20061;-78
2023/08/03 20:21:39;;;;;;;11.38;4.57;;;;;;;12.92;100.00;100716.31;10446044;28;20477;-78
2023/08/03 20:26:40;;;;;;;12.17;4.40;;;;;;;12.78;100.00;100722.81;10435308;28;20168;-78
2023/08/03 20:31:41;;;;;;;12.38;5.15;;;;;;;12.65;100.00;100733.69;10451542;28;20425;-78
2023/08/03 20:36:41;;;;;;;10.40;5.65;;;;;;;12.58;100.00;100740.47;10429741;28;20427;-78
2023/08/03 20:41:42;;;;;;;11.95;5.43;;;;;;;12.58;100.00;100745.72;10442519;28;20109;-78
2023/08/03 20:46:42;;;;;;;14.35;7.10;;;;;;;12.56;100.00;100753.53;10442000;28;20037;-79
2023/08/03 20:51:43;;;;;;;7.75;6.07;;;;;;;12.44;100.00;100751.34;10441807;28;20037;-78
2023/08/03 20:56:43;;;;;;;10.98;5.78;;;;;;;12.38;100.00;100750.19;10447243;28;20041;-79
2023/08/03 21:01:44;;;;;;;18.52;9.35;;;;;;;12.29;100.00;100754.25;10431292;28;20038;-79
2023/08/03 21:06:45;;;;;;;11.48;4.68;;;;;;;12.23;100.00;100767.13;10441070;28;20045;-79
2023/08/03 21:11:45;;;;;;;13.63;5.30;;;;;;;12.20;100.00;100782.75;10446632;28;20128;-79
2023/08/03 21:16:46;;;;;;;11.10;7.25;;;;;;;12.15;100.00;100774.72;10439970;28;20556;-79
2023/08/03 21:21:46;;;;;;;11.25;6.43;;;;;;;12.01;100.00;100784.66;10440426;28;20048;-78
2023/08/03 21:26:47;;;;;;;14.45;7.53;;;;;;;11.95;100.00;100789.63;10441355;28;20527;-79
2023/08/03 21:31:48;;;;;;;20.48;8.05;;;;;;;11.78;100.00;100772.28;10437626;28;20041;-80
2023/08/03 21:36:48;;;;;;;14.70;7.22;;;;;;;11.68;100.00;100782.41;10427597;28;20108;-80
2023/08/03 21:41:49;;;;;;;12.73;6.75;;;;;;;11.67;100.00;100787.59;10414510;28;20042;-78
2023/08/03 21:46:49;;;;;;;17.42;7.95;;;;;;;11.69;100.00;100785.94;10430397;28;20033;-80
2023/08/03 21:51:50;;;;;;;16.40;7.47;;;;;;;11.66;100.00;100789.31;10419925;28;20099;-80
2023/08/03 21:56:50;;;;;;;18.50;7.57;;;;;;;11.62;100.00;100792.63;10419973;28;20124;-79
2023/08/03 22:01:51;;;;;;;18.05;7.45;;;;;;;11.55;100.00;100787.97;10436633;28;20087;-80
2023/08/03 22:06:51;;;;;;;15.07;6.85;;;;;;;11.45;100.00;100784.94;10436077;28;20179;-80
2023/08/03 22:11:52;;;;;;;16.98;7.45;;;;;;;11.34;100.00;100785.31;10430184;28;20109;-80
2023/08/03 22:16:54;;;;;;;15.30;9.38;;;;;;;11.25;100.00;100791.97;10416675;28;20049;-79
2023/08/03 22:21:54;;;;;;;13.13;7.05;;;;;;;11.10;100.00;100794.78;10442498;28;20053;-79
2023/08/03 22:26:55;;;;;;;24.80;11.55;;;;;;;10.99;100.00;100793.41;10412196;28;20194;-80
2023/08/03 22:31:55;;;;;;;16.17;8.23;;;;;;;10.93;100.00;100793.13;10435863;28;20103;-80
2023/08/03 22:36:56;;;;;;;16.33;8.75;;;;;;;10.88;100.00;100792.94;10412916;28;20049;-80
2023/08/03 22:41:56;;;;;;;18.67;9.73;;;;;;;10.94;100.00;100794.94;10424142;28;20447;-79
2023/08/03 22:46:57;;;;;;;17.95;8.48;;;;;;;10.93;100.00;100798.38;10435544;28;20037;-79
2023/08/03 22:51:58;;;;;;;15.75;9.10;;;;;;;10.96;100.00;100802.03;10440080;28;20088;-78
2023/08/03 22:56:58;;;;;;;17.20;8.85;;;;;;;10.99;100.00;100809.13;10440206;28;20040;-78